Data for 10/13/2017

Time Sea-Level Adjusted Pressure Absolute Pressure Temperature Relative Humidity Dew Point   
(mb) (inHg) (mb) (inHg) (C) (F) (%) (C) (F)
00:05 1017 30.03 846 24.98 1.5 34.7 55 -6.7 20
00:10 1017 30.03 846 24.98 1.5 34.6 54 -6.9 19.5
00:15 1017 30.03 846 24.98 1.5 34.7 54 -6.8 19.8
00:20 1017 30.03 846 24.98 1.6 34.8 53 -7.1 19.2
00:25 1017 30.03 846 24.98 1.7 35 53 -6.9 19.6
00:30 1017 30.03 846 24.98 1.6 35 54 -6.7 19.9
00:35 1017 30.03 846 24.98 1.6 34.9 52 -7.1 19.2
00:40 1017 30.03 846 24.98 1.7 35 52 -7.1 19.2
00:45 1017 30.03 846 24.98 1.8 35.3 51 -7.2 19
00:50 1017 30.03 846 24.98 1.8 35.2 52 -7 19.4
00:55 1017 30.03 846 24.98 1.7 35.1 54 -6.7 20
01:00 1017 30.03 846 24.98 1.6 34.9 53 -7 19.4
01:05 1017 30.03 846 24.98 1.7 35.1 53 -6.8 19.8
01:10 1017 30.03 846 24.98 1.7 35.1 54 -6.6 20.1
01:15 1017 30.03 846 24.98 1.7 35.1 54 -6.7 20
01:20 1017 30.03 846 24.98 1.6 34.9 54 -6.7 20
01:25 1017 30.03 846 24.98 1.6 34.8 56 -6.4 20.5
01:30 1017 30.03 846 24.98 1.6 34.9 53 -6.9 19.6
01:35 1017 30.03 846 24.98 1.7 35.1 52 -7.2 19
01:40 1017 30.03 846 24.98 1.9 35.5 50 -7.5 18.6
01:45 1017 30.03 846 24.98 1.9 35.5 52 -7 19.4
01:50 1017 30.03 846 24.98 1.9 35.4 51 -7.2 19.1
01:55 1017 30.03 846 24.98 1.8 35.3 51 -7.2 19
02:00 1017 30.03 846 24.98 1.8 35.2 53 -6.8 19.7
02:05 1017 30.03 846 24.98 1.7 35.1 53 -7 19.5
02:10 1017 30.03 846 24.98 1.7 35 53 -7 19.3
02:15 1017 30.03 846 24.98 1.7 35 53 -6.8 19.8
02:20 1017 30.03 846 24.98 1.5 34.7 54 -6.8 19.8
02:25 1017 30.03 846 24.98 1.4 34.4 55 -6.8 19.7
02:30 1017 30.03 846 24.98 1.3 34.3 54 -6.9 19.5
02:35 1017 30.03 846 24.98 1.4 34.5 53 -7.1 19.3
02:40 1017 30.03 846 24.98 1.6 34.9 51 -7.5 18.5
02:45 1017 30.03 846 24.98 2 35.6 50 -7.5 18.6
02:50 1017 30.03 846 24.98 2 35.6 50 -7.5 18.5
02:55 1017 30.03 846 24.98 1.8 35.2 52 -7 19.4
03:00 1017 30.03 846 24.98 1.6 34.8 52 -7.2 19
03:05 1017 30.03 846 24.98 1.6 34.9 53 -7 19.5
03:10 1017 30.03 846 24.98 1.6 34.9 54 -6.8 19.7
03:15 1017 30.03 846 24.98 1.4 34.5 56 -6.5 20.3
03:20 1017 30.03 846 24.98 1.2 34.2 57 -6.3 20.6
03:25 1017 30.03 846 24.98 1 33.8 59 -6.1 20.9
03:30 1017 30.03 846 24.98 1 33.8 58 -6.4 20.4
03:35 1017 30.03 846 24.98 1.1 34 58 -6.2 20.8
03:40 1017 30.03 846 24.98 0.9 33.7 59 -6.1 21
03:45 1016 30 846 24.98 0.8 33.4 59 -6.2 20.8
03:50 1016 30 846 24.98 0.9 33.7 58 -6.3 20.6
03:55 1016 30 846 24.98 1 33.7 58 -6.5 20.4
04:00 1016 30 846 24.98 1 33.7 58 -6.3 20.6
04:05 1016 30 846 24.98 0.8 33.4 60 -6.2 20.9
04:10 1016 30 846 24.98 0.6 33.1 61 -6.1 21.1
04:15 1017 30.03 846 24.98 0.6 33 59 -6.5 20.3
04:20 1017 30.03 846 24.98 0.6 33.1 59 -6.5 20.2
04:25 1017 30.03 846 24.98 0.6 33 59 -6.5 20.3
04:30 1017 30.03 846 24.98 0.7 33.3 57 -6.8 19.8
04:35 1017 30.03 846 24.98 0.8 33.5 56 -6.9 19.5
04:40 1016 30 846 24.98 0.9 33.5 55 -7.2 19
04:45 1016 30 846 24.98 1 33.8 59 -6.2 20.8
04:50 1016 30 846 24.98 0.8 33.4 58 -6.6 20.1
04:55 1016 30 846 24.98 0.9 33.6 54 -7.3 18.8
05:00 1016 30 846 24.98 1 33.8 54 -7.3 18.9
05:05 1016 30 846 24.98 0.9 33.6 55 -7.2 19.1
05:10 1016 30 846 24.98 0.7 33.3 55 -7.4 18.6
05:15 1016 30 846 24.98 0.8 33.4 54 -7.4 18.7
05:20 1016 30 846 24.98 0.8 33.4 55 -7.3 18.8
05:25 1016 30 846 24.98 0.7 33.2 56 -7.1 19.3
05:30 1016 30 846 24.98 0.6 33 55 -7.4 18.7
05:35 1016 30 846 24.98 0.8 33.4 55 -7.4 18.7
05:40 1016 30 846 24.98 0.9 33.6 53 -7.6 18.3
05:45 1016 30 846 24.98 1 33.8 56 -6.8 19.8
05:50 1016 30 846 24.98 0.6 33.2 57 -6.9 19.6
05:55 1016 30 846 24.98 0.6 33 55 -7.5 18.5
06:00 1016 30 846 24.98 0.8 33.4 58 -6.5 20.3
06:05 1016 30 846 24.98 0.5 32.8 57 -7.1 19.3
06:10 1016 30 846 24.98 0.4 32.6 59 -6.7 19.9
06:15 1016 30 846 24.98 0.2 32.4 59 -6.8 19.8
06:20 1016 30 846 24.98 0.2 32.4 59 -6.8 19.8
06:25 1016 30 846 24.98 0.4 32.7 57 -7.2 19
06:30 1016 30 846 24.98 0.5 33 57 -7 19.5
06:35 1016 30 846 24.98 0.5 32.9 56 -7.3 18.9
06:40 1016 30 846 24.98 0.7 33.3 56 -7.1 19.2
06:45 1016 30 846 24.98 0.8 33.4 53 -7.8 17.9
06:50 1016 30 845 24.95 1 33.8 53 -7.4 18.6
06:55 1016 30 845 24.95 1.2 34.2 51 -7.7 18.1
07:00 1016 30 846 24.98 1.3 34.3 52 -7.5 18.5
07:05 1016 30 846 24.98 1.3 34.3 51 -7.7 18.1
07:10 1016 30 846 24.98 1.5 34.8 51 -7.5 18.6
07:15 1016 30 846 24.98 1.7 35.1 49 -7.8 17.9
07:20 1016 30 846 24.98 2 35.5 50 -7.5 18.4
07:25 1016 30 846 24.98 1.8 35.3 50 -7.4 18.6
07:30 1016 30 846 24.98 2.2 36 45 -8.6 16.6
07:35 1016 30 846 24.98 3.4 38.1 42 -8.3 17.1
07:40 1016 30 846 24.98 3.6 38.5 45 -7.3 18.9
07:45 1017 30.03 846 24.98 3.6 38.4 43 -7.8 17.9
07:50 1017 30.03 846 24.98 3.4 38.2 46 -7.2 19.1
07:55 1017 30.03 846 24.98 3.3 37.9 45 -7.4 18.6
08:00 1017 30.03 846 24.98 3.2 37.7 47 -7.1 19.3
08:05 1017 30.03 846 24.98 2.9 37.2 48 -7.2 19.1
08:10 1017 30.03 846 24.98 2.9 37.3 46 -7.5 18.4
08:15 1017 30.03 846 24.98 3.2 37.8 45 -7.5 18.6
08:20 1017 30.03 846 24.98 3.2 37.8 54 -5.3 22.5
08:25 1017 30.03 846 24.98 2.5 36.5 54 -6 21.2
08:30 1017 30.03 846 24.98 2.2 36 52 -6.7 19.9
08:35 1017 30.03 846 24.98 2.5 36.5 49 -7.2 19.1
08:40 1017 30.03 846 24.98 2.9 37.3 49 -6.7 19.9
08:45 1017 30.03 846 24.98 3.1 37.5 50 -6.4 20.6
08:50 1017 30.03 846 24.98 3.2 37.7 51 -6.1 21
08:55 1017 30.03 846 24.98 3 37.5 50 -6.3 20.6
09:00 1017 30.03 846 24.98 3 37.5 47 -7.3 18.8
09:05 1017 30.03 846 24.98 3.6 38.5 46 -7 19.3
09:10 1017 30.03 846 24.98 3.6 38.5 50 -5.9 21.4
09:15 1017 30.03 846 24.98 3.3 38 49 -6.3 20.7
09:20 1017 30.03 846 24.98 3.6 38.5 47 -6.7 20
09:25 1017 30.03 846 24.98 4 39.2 51 -5.3 22.5
09:30 1017 30.03 846 24.98 4.1 39.4 50 -5.4 22.3
09:35 1017 30.03 846 24.98 3.9 38.9 51 -5.5 22.1
09:40 1017 30.03 846 24.98 3.7 38.7 51 -5.4 22.3
09:45 1017 30.03 846 24.98 3.7 38.7 51 -5.5 22
09:50 1017 30.03 846 24.98 3.8 38.9 48 -6.2 20.9
09:55 1017 30.03 846 24.98 3.8 38.9 49 -6 21.1
10:00 1017 30.03 846 24.98 3.9 39 46 -6.6 20.2
10:05 1017 30.03 846 24.98 4 39.2 46 -6.7 20
10:10 1017 30.03 846 24.98 4.3 39.7 47 -6.1 21.1
10:15 1017 30.03 846 24.98 4.6 40.3 43 -6.9 19.5
10:20 1017 30.03 846 24.98 5 40.9 42 -6.8 19.8
10:25 1017 30.03 846 24.98 5.1 41.3 44 -6.1 20.9
10:30 1017 30.03 846 24.98 4.9 40.9 45 -6.1 21
10:35 1017 30.03 846 24.98 4.8 40.7 45 -6.2 20.9
10:40 1017 30.03 846 24.98 4.7 40.5 45 -6.2 20.8
10:45 1017 30.03 846 24.98 4.8 40.7 45 -6.2 20.9
10:50 1017 30.03 846 24.98 4.8 40.7 44 -6.4 20.5
10:55 1016 30 846 24.98 4.8 40.7 44 -6.3 20.6
11:00 1016 30 846 24.98 5.1 41.1 43 -6.6 20.2
11:05 1016 30 845 24.95 5.4 41.7 41 -7 19.4
11:10 1016 30 845 24.95 5.8 42.4 38 -7.6 18.4
11:15 1016 30 845 24.95 6.4 43.5 35 -8 17.5
11:20 1016 30 846 24.98 6.8 44.2 33 -8.4 16.9
11:25 1016 30 846 24.98 6.7 44.1 34 -8.1 17.3
11:30 1016 30 846 24.98 6.6 43.8 35 -7.7 18.1
11:35 1016 30 846 24.98 6.7 44 35 -7.8 17.9
11:40 1016 30 845 24.95 6.9 44.4 34 -8.1 17.5
11:45 1016 30 845 24.95 6.8 44.3 35 -7.7 18.2
11:50 1016 30 845 24.95 7 44.6 33 -8.1 17.5
11:55 1016 30 845 24.95 6.9 44.4 33 -8.2 17.3
12:00 1016 30 845 24.95 7.3 45.2 32 -8.2 17.2
12:05 1016 30 845 24.95 7.9 46.2 32 -7.6 18.3
12:10 1016 30 845 24.95 7.6 45.6 33 -7.8 18
12:15 1016 30 845 24.95 8.2 46.7 29 -8.9 16
12:20 1016 30 845 24.95 8.2 46.7 28 -9.5 14.9
12:25 1016 30 846 24.98 8.2 46.7 36 -5.8 21.5
12:30 1016 30 846 24.98 6.1 43 55 -2.1 28.1
12:35 1016 30 846 24.98 4.2 39.6 61 -2.6 27.4
12:40 1017 30.03 846 24.98 3.8 38.8 64 -2.4 27.7
12:45 1017 30.03 846 24.98 4.1 39.5 61 -2.6 27.3
12:50 1017 30.03 846 24.98 4 39.2 59 -3.2 26.2
12:55 1017 30.03 846 24.98 3.6 38.5 61 -3.3 26.1
13:00 1017 30.03 846 24.98 3.5 38.2 60 -3.5 25.8
13:05 1017 30.03 846 24.98 3.3 37.9 60 -3.8 25.1
13:10 1017 30.03 846 24.98 3.1 37.7 62 -3.5 25.7
13:15 1017 30.03 847 25.01 3 37.5 65 -2.9 26.7
13:20 1017 30.03 846 24.98 3.1 37.6 63 -3.2 26.3
13:25 1017 30.03 846 24.98 3.5 38.4 59 -3.7 25.4
13:30 1017 30.03 846 24.98 4.4 39.9 54 -4.2 24.4
13:35 1017 30.03 846 24.98 5.4 41.7 50 -4.1 24.6
13:40 1017 30.03 846 24.98 5.1 41.2 51 -4.1 24.6
13:45 1017 30.03 846 24.98 5 41.1 51 -4.1 24.5
13:50 1017 30.03 846 24.98 5.3 41.5 49 -4.5 23.9
13:55 1017 30.03 846 24.98 5.2 41.4 49 -4.5 23.9
14:00 1017 30.03 846 24.98 4.8 40.7 52 -4.2 24.5
14:05 1017 30.03 846 24.98 4.4 39.9 55 -3.8 25.2
14:10 1017 30.03 846 24.98 3.8 38.8 58 -3.7 25.3
14:15 1017 30.03 846 24.98 3.4 38.1 59 -3.9 25
14:20 1017 30.03 846 24.98 3.1 37.6 61 -3.8 25.2
14:25 1017 30.03 846 24.98 3 37.4 64 -3.1 26.3
14:30 1017 30.03 846 24.98 3.2 37.7 63 -3.2 26.2
14:35 1017 30.03 846 24.98 2.9 37.2 63 -3.5 25.8
14:40 1017 30.03 846 24.98 2.9 37.1 64 -3.3 26.1
14:45 1017 30.03 846 24.98 3 37.5 63 -3.2 26.2
14:50 1017 30.03 846 24.98 3.2 37.7 62 -3.4 25.9
14:55 1017 30.03 846 24.98 3.3 37.9 62 -3.4 25.9
15:00 1017 30.03 846 24.98 3 37.5 63 -3.2 26.2
15:05 1017 30.03 846 24.98 2.8 37.1 70 -2.1 28.2
15:10 1017 30.03 847 25.01 2.6 36.6 70 -2.4 27.7
15:15 1018 30.06 847 25.01 2.6 36.7 71 -2.2 28.1
15:20 1018 30.06 847 25.01 2.5 36.5 68 -2.9 26.9
15:25 1018 30.06 847 25.01 2.6 36.7 69 -2.5 27.4
15:30 1018 30.06 847 25.01 2.6 36.6 72 -2 28.4
15:35 1017 30.03 847 25.01 2.5 36.6 73 -1.8 28.7
15:40 1017 30.03 847 25.01 2.7 36.8 73 -1.7 29
15:45 1017 30.03 847 25.01 2.5 36.5 73 -1.8 28.7
15:50 1017 30.03 847 25.01 2.3 36.1 75 -1.7 28.9
15:55 1017 30.03 847 25.01 2.1 35.8 74 -2.1 28.2
16:00 1018 30.06 847 25.01 2.1 35.8 75 -1.9 28.5
16:05 1018 30.06 847 25.01 2.1 35.8 75 -1.8 28.8
16:10 1018 30.06 847 25.01 2.1 35.9 73 -2.2 28
16:15 1018 30.06 847 25.01 2.4 36.2 72 -2.3 27.9
16:20 1018 30.06 847 25.01 2.4 36.3 72 -2.1 28.2
16:25 1018 30.06 847 25.01 2.8 37.1 68 -2.5 27.5
16:30 1018 30.06 847 25.01 2.9 37.2 68 -2.5 27.6
16:35 1018 30.06 847 25.01 2.7 36.8 69 -2.4 27.7
16:40 1018 30.06 847 25.01 2.7 36.9 69 -2.3 27.8
16:45 1018 30.06 847 25.01 2.9 37.2 67 -2.6 27.3
16:50 1018 30.06 847 25.01 3 37.4 63 -3.4 25.9
16:55 1018 30.06 847 25.01 3.3 37.9 62 -3.4 25.9
17:00 1018 30.06 847 25.01 3.4 38.1 61 -3.5 25.7
17:05 1018 30.06 847 25.01 3.5 38.3 60 -3.4 25.8
17:10 1018 30.06 847 25.01 3.5 38.2 61 -3.3 26
17:15 1018 30.06 847 25.01 3.5 38.3 60 -3.4 25.8
17:20 1018 30.06 847 25.01 3.5 38.4 61 -3.3 26
17:25 1018 30.06 847 25.01 3.2 37.8 63 -3.3 26.1
17:30 1018 30.06 847 25.01 3 37.4 63 -3.3 26
17:35 1018 30.06 847 25.01 2.9 37.2 65 -3.1 26.4
17:40 1018 30.06 848 25.04 2.8 37.1 64 -3.3 26.1
17:45 1018 30.06 848 25.04 2.7 36.8 65 -3.2 26.2
17:50 1019 30.09 848 25.04 2.5 36.5 66 -3.1 26.4
17:55 1019 30.09 848 25.04 2.2 36 68 -3 26.5
18:00 1019 30.09 848 25.04 1.9 35.4 70 -3 26.6
18:05 1019 30.09 848 25.04 1.6 34.9 72 -2.9 26.8
18:10 1019 30.09 848 25.04 1.4 34.4 74 -2.8 27
18:15 1019 30.09 848 25.04 1.1 34 76 -2.7 27.2
18:20 1019 30.09 848 25.04 0.9 33.6 77 -2.8 27
18:25 1019 30.09 848 25.04 0.9 33.7 73 -3.4 25.8
18:30 1019 30.09 848 25.04 1.3 34.3 69 -3.7 25.4
18:35 1019 30.09 848 25.04 1.6 35 67 -3.7 25.3
18:40 1019 30.09 848 25.04 1.9 35.5 66 -3.7 25.3
18:45 1019 30.09 848 25.04 1.9 35.4 71 -2.8 27
18:50 1019 30.09 848 25.04 1.2 34.2 74 -2.9 26.8
18:55 1019 30.09 848 25.04 1.1 34 73 -3.1 26.4
19:00 1019 30.09 848 25.04 1.3 34.3 72 -3.3 26.1
19:05 1019 30.09 848 25.04 1.3 34.4 72 -3.2 26.2
19:10 1019 30.09 848 25.04 1.3 34.4 70 -3.5 25.7
19:15 1019 30.09 848 25.04 1.3 34.4 70 -3.5 25.6
19:20 1019 30.09 849 25.07 1.4 34.5 69 -3.6 25.5
19:25 1019 30.09 849 25.07 1.3 34.3 70 -3.6 25.6
19:30 1019 30.09 849 25.07 1.1 34.1 71 -3.5 25.6
19:35 1019 30.09 849 25.07 1.1 33.9 71 -3.5 25.6
19:40 1019 30.09 848 25.04 1 33.8 71 -3.6 25.6
19:45 1019 30.09 848 25.04 1 33.7 72 -3.5 25.7
19:50 1019 30.09 848 25.04 0.7 33.2 76 -3.1 26.3
19:55 1019 30.09 848 25.04 0.4 32.7 77 -3.2 26.2
20:00 1019 30.09 848 25.04 0.2 32.4 78 -3.1 26.4
20:05 1019 30.09 848 25.04 -0.6 30.9 81 -3.4 25.8
20:10 1019 30.09 849 25.07 -0.7 30.7 80 -3.7 25.3
20:15 1019 30.09 849 25.07 -0.5 31.1 79 -3.7 25.3
20:20 1019 30.09 849 25.07 -0.6 30.9 79 -3.8 25.2
20:25 1019 30.09 849 25.07 -0.5 31.2 76 -4.2 24.4
20:30 1019 30.09 849 25.07 -0.4 31.4 76 -4.1 24.5
20:35 1019 30.09 849 25.07 -0.5 31.2 77 -4.1 24.7
20:40 1020 30.12 849 25.07 -0.8 30.6 78 -4.1 24.6
20:45 1020 30.12 849 25.07 -1 30.2 79 -4.1 24.6
20:50 1020 30.12 849 25.07 -1 30.3 79 -4.2 24.4
20:55 1020 30.12 849 25.07 -0.9 30.3 79 -4.1 24.7
21:00 1020 30.12 849 25.07 -0.9 30.4 79 -4.1 24.6
21:05 1020 30.12 849 25.07 -0.8 30.5 79 -4 24.7
21:10 1020 30.12 849 25.07 -0.7 30.8 78 -4 24.7
21:15 1020 30.12 849 25.07 -0.7 30.8 78 -4.1 24.7
21:20 1020 30.12 849 25.07 -0.7 30.8 77 -4.1 24.5
21:25 1020 30.12 849 25.07 -0.6 30.9 77 -4.1 24.6
21:30 1020 30.12 849 25.07 -0.7 30.7 78 -4.1 24.6
21:35 1020 30.12 849 25.07 -0.8 30.6 78 -4.2 24.4
21:40 1020 30.12 849 25.07 -0.6 30.9 77 -4.1 24.6
21:45 1020 30.12 849 25.07 -0.6 30.9 77 -4.1 24.5
21:50 1020 30.12 849 25.07 -0.5 31.1 77 -4 24.7
21:55 1020 30.12 849 25.07 -0.5 31.1 77 -4 24.7
22:00 1020 30.12 849 25.07 -0.5 31.2 77 -4.1 24.7
22:05 1020 30.12 849 25.07 -0.4 31.3 76 -4.1 24.7
22:10 1020 30.12 849 25.07 -0.4 31.2 77 -4.1 24.7
22:15 1020 30.12 849 25.07 -0.5 31 78 -4 24.8
22:20 1020 30.12 849 25.07 -0.6 31 77 -4.1 24.7
22:25 1020 30.12 849 25.07 -0.6 31 77 -4 24.7
22:30 1020 30.12 849 25.07 -0.6 30.9 77 -4.1 24.6
22:35 1020 30.12 849 25.07 -0.5 31.1 74 -4.6 23.7
22:40 1020 30.12 849 25.07 -0.3 31.5 74 -4.4 24.1
22:45 1020 30.12 849 25.07 -0.2 31.6 74 -4.3 24.3
22:50 1020 30.12 849 25.07 -0.2 31.6 74 -4.3 24.2
22:55 1020 30.12 849 25.07 -0.2 31.6 74 -4.3 24.2
23:00 1020 30.12 849 25.07 -0.1 31.9 73 -4.3 24.3
23:05 1020 30.12 849 25.07 -0 32 74 -4.1 24.6
23:10 1020 30.12 849 25.07 -0.1 31.8 75 -4 24.7
23:15 1020 30.12 850 25.1 -0.1 31.8 75 -4.1 24.6
23:20 1020 30.12 850 25.1 -0.1 31.9 75 -4 24.8
23:25 1020 30.12 850 25.1 -0.1 31.8 75 -4 24.8
23:30 1020 30.12 850 25.1 -0.2 31.7 75 -4 24.7
23:35 1020 30.12 849 25.07 -0.2 31.6 76 -4 24.8
23:40 1020 30.12 849 25.07 -0.3 31.5 76 -4 24.8
23:45 1020 30.12 850 25.1 -0.4 31.3 76 -4.1 24.7
23:50 1020 30.12 850 25.1 -0.5 31 78 -4 24.8
23:55 1020 30.12 850 25.1 -0.6 30.9 78 -3.9 25
24:00 1020 30.12 850 25.1 -0.6 31 78 -4 24.8